createdAt,value
2022-10-31T00:00:53.026Z,13.30
2022-10-31T00:03:19.949Z,13.30
2022-10-31T00:05:47.802Z,13.20
2022-10-31T00:08:14.987Z,13.20
2022-10-31T00:10:42.243Z,13.20
2022-10-31T00:13:10.069Z,13.20
2022-10-31T00:15:40.917Z,13.20
2022-10-31T00:18:08.741Z,13.20
2022-10-31T00:20:35.516Z,13.20
2022-10-31T00:23:02.878Z,13.20
2022-10-31T00:25:30.074Z,13.20
2022-10-31T00:27:57.044Z,13.20
2022-10-31T00:30:24.156Z,13.20
2022-10-31T00:32:50.943Z,13.20
2022-10-31T00:35:17.759Z,13.20
2022-10-31T00:37:44.598Z,13.20
2022-10-31T00:40:11.928Z,13.20
2022-10-31T00:42:39.841Z,13.20
2022-10-31T00:45:06.860Z,13.20
2022-10-31T00:47:33.727Z,13.20
2022-10-31T00:50:00.491Z,13.20
2022-10-31T00:52:27.270Z,13.10
2022-10-31T00:54:54.110Z,13.20
2022-10-31T00:57:20.867Z,13.10
2022-10-31T00:59:47.612Z,13.10
2022-10-31T01:02:14.543Z,13.10
2022-10-31T01:04:41.421Z,13.10
2022-10-31T01:07:08.528Z,13.10
2022-10-31T01:09:35.346Z,13.10
2022-10-31T01:12:02.177Z,13.10
2022-10-31T01:14:29.681Z,13.10
2022-10-31T01:16:56.515Z,13.10
2022-10-31T01:19:23.280Z,13.10
2022-10-31T01:21:50.062Z,13.10
2022-10-31T01:24:16.825Z,13.10
2022-10-31T01:26:43.582Z,13.00
2022-10-31T01:29:10.764Z,12.90
2022-10-31T01:31:39.700Z,12.90
2022-10-31T01:34:06.692Z,12.80
2022-10-31T01:36:37.879Z,12.80
2022-10-31T01:39:12.447Z,12.70
2022-10-31T01:41:40.494Z,12.70
2022-10-31T01:44:16.458Z,12.70
2022-10-31T01:46:43.239Z,12.60
2022-10-31T01:49:16.263Z,12.60
2022-10-31T01:51:46.121Z,12.50
2022-10-31T01:54:15.880Z,12.50
2022-10-31T01:56:46.411Z,12.50
2022-10-31T01:59:16.221Z,12.60
2022-10-31T02:01:43.604Z,12.60
2022-10-31T02:04:10.578Z,12.60
2022-10-31T02:06:40.379Z,12.60
2022-10-31T02:09:07.289Z,12.60
2022-10-31T02:11:35.743Z,12.50
2022-10-31T02:14:02.702Z,12.40
2022-10-31T02:16:29.582Z,12.40
2022-10-31T02:18:56.914Z,12.40
2022-10-31T02:21:33.826Z,12.40
2022-10-31T02:24:19.610Z,12.30
2022-10-31T02:26:59.983Z,12.30
2022-10-31T02:29:26.777Z,12.20
2022-10-31T02:32:08.995Z,12.10
2022-10-31T02:34:38.766Z,12.00
2022-10-31T02:37:16.573Z,12.00
2022-10-31T02:39:49.379Z,11.90
2022-10-31T02:42:18.614Z,11.80
2022-10-31T02:44:54.697Z,11.70
2022-10-31T02:47:29.102Z,11.60
2022-10-31T02:49:58.548Z,11.60
2022-10-31T02:52:26.256Z,11.50
2022-10-31T02:54:53.522Z,11.50
2022-10-31T02:57:27.126Z,11.40
2022-10-31T02:59:58.221Z,11.40
2022-10-31T03:02:28.309Z,11.40
2022-10-31T03:04:55.094Z,11.30
2022-10-31T03:07:24.912Z,11.30
2022-10-31T03:09:56.244Z,11.30
2022-10-31T03:12:43.203Z,11.20
2022-10-31T03:15:22.946Z,11.20
2022-10-31T03:18:22.130Z,11.20
2022-10-31T03:20:56.739Z,11.20
2022-10-31T03:23:24.710Z,11.10
2022-10-31T03:25:52.536Z,11.10
2022-10-31T03:28:23.314Z,11.10
2022-10-31T03:30:51.107Z,11.10
2022-10-31T03:33:22.076Z,11.10
2022-10-31T03:35:51.252Z,11.10
2022-10-31T03:38:18.996Z,11.20
2022-10-31T03:40:47.597Z,11.10
2022-10-31T03:45:49.850Z,11.10
2022-10-31T03:48:18.415Z,11.10
2022-10-31T03:50:51.616Z,11.10
2022-10-31T03:53:23.771Z,11.10
2022-10-31T03:55:56.380Z,11.00
2022-10-31T03:58:25.432Z,11.00
2022-10-31T04:00:53.164Z,11.00
2022-10-31T04:03:23.741Z,11.00
2022-10-31T04:05:51.903Z,10.90
2022-10-31T04:08:21.201Z,10.90
2022-10-31T04:10:49.224Z,10.90
2022-10-31T04:15:46.746Z,10.90
2022-10-31T04:18:13.711Z,10.80
2022-10-31T04:20:41.976Z,10.80
2022-10-31T04:23:27.276Z,10.70
2022-10-31T04:25:54.190Z,10.70
2022-10-31T04:28:22.146Z,10.60
2022-10-31T04:30:49.289Z,10.60
2022-10-31T04:33:16.037Z,10.60
2022-10-31T04:35:42.809Z,10.50
2022-10-31T04:38:09.569Z,10.50
2022-10-31T04:40:36.336Z,10.50
2022-10-31T04:43:03.585Z,10.50
2022-10-31T04:45:30.949Z,10.40
2022-10-31T04:47:58.053Z,10.40
2022-10-31T04:50:25.184Z,10.40
2022-10-31T04:52:52.001Z,10.30
2022-10-31T04:55:18.862Z,10.30
2022-10-31T04:57:46.649Z,10.30
2022-10-31T05:00:14.461Z,10.30
2022-10-31T05:02:47.955Z,10.20
2022-10-31T05:05:15.542Z,10.20
2022-10-31T05:07:43.142Z,10.10
2022-10-31T05:10:10.941Z,10.10
2022-10-31T05:12:38.181Z,10.10
2022-10-31T05:15:06.356Z,10.10
2022-10-31T05:17:33.229Z,10.10
2022-10-31T05:19:59.960Z,10.10
2022-10-31T05:22:26.709Z,10.10
2022-10-31T05:24:57.679Z,10.10
2022-10-31T05:27:24.607Z,10.00
2022-10-31T05:29:51.404Z,10.00
2022-10-31T05:32:18.223Z,9.90
2022-10-31T05:34:45.051Z,9.90
2022-10-31T05:37:11.981Z,9.90
2022-10-31T05:39:38.673Z,9.80
2022-10-31T05:42:05.733Z,9.80
2022-10-31T05:44:32.473Z,9.80
2022-10-31T05:46:59.309Z,9.70
2022-10-31T05:49:26.116Z,9.70
2022-10-31T05:51:53.031Z,9.70
2022-10-31T05:54:19.881Z,9.70
2022-10-31T05:56:46.690Z,9.60
2022-10-31T05:59:13.509Z,9.60
2022-10-31T06:01:40.339Z,9.60
2022-10-31T06:04:07.210Z,9.50
2022-10-31T06:06:33.923Z,9.50
2022-10-31T06:09:01.311Z,9.50
2022-10-31T06:11:28.140Z,9.50
2022-10-31T06:13:54.865Z,9.40
2022-10-31T06:16:21.637Z,9.40
2022-10-31T06:18:48.464Z,9.40
2022-10-31T06:21:18.056Z,9.40
2022-10-31T06:23:46.094Z,9.40
2022-10-31T06:26:12.865Z,9.40
2022-10-31T06:28:39.860Z,9.40
2022-10-31T06:31:06.710Z,9.40
2022-10-31T06:33:34.031Z,9.50
2022-10-31T06:36:01.128Z,9.60
2022-10-31T06:38:28.235Z,9.60
2022-10-31T06:40:55.751Z,9.70
2022-10-31T06:43:22.866Z,9.90
2022-10-31T06:46:04.038Z,10.00
2022-10-31T06:48:31.367Z,10.10
2022-10-31T06:50:59.770Z,10.30
2022-10-31T06:53:27.007Z,10.40
2022-10-31T06:55:54.099Z,10.50
2022-10-31T06:58:20.966Z,10.50
2022-10-31T07:00:48.135Z,10.70
2022-10-31T07:03:16.964Z,10.80
2022-10-31T07:05:48.330Z,10.90
2022-10-31T07:08:17.658Z,11.00
2022-10-31T07:10:53.919Z,11.10
2022-10-31T07:13:25.884Z,11.20
2022-10-31T07:15:56.902Z,11.30
2022-10-31T07:18:24.005Z,11.60
2022-10-31T07:20:56.923Z,11.80
2022-10-31T07:23:25.831Z,12.10
2022-10-31T07:25:59.510Z,12.30
2022-10-31T07:28:27.211Z,12.50
2022-10-31T07:30:59.798Z,12.60
2022-10-31T07:33:30.438Z,12.70
2022-10-31T07:35:57.396Z,12.80
2022-10-31T07:38:31.391Z,13.00
2022-10-31T07:40:58.311Z,13.10
2022-10-31T07:43:25.341Z,13.40
2022-10-31T07:45:55.255Z,13.60
2022-10-31T07:48:22.048Z,13.90
2022-10-31T07:50:48.937Z,14.00
2022-10-31T07:53:17.017Z,14.00
2022-10-31T07:55:44.438Z,14.10
2022-10-31T07:58:15.760Z,14.30
2022-10-31T08:00:43.667Z,14.50
2022-10-31T08:03:11.771Z,14.70
2022-10-31T08:05:48.212Z,15.00
2022-10-31T08:08:15.962Z,15.30
2022-10-31T08:10:43.240Z,15.50
2022-10-31T08:13:11.900Z,15.70
2022-10-31T08:15:40.897Z,15.90
2022-10-31T08:18:08.286Z,15.90
2022-10-31T08:20:35.066Z,15.80
2022-10-31T08:23:03.184Z,15.80
2022-10-31T08:25:35.343Z,15.80
2022-10-31T08:28:05.481Z,15.80
2022-10-31T08:30:32.745Z,15.80
2022-10-31T08:33:03.886Z,15.80
2022-10-31T08:35:30.721Z,15.90
2022-10-31T08:37:58.251Z,15.90
2022-10-31T08:40:25.956Z,16.10
2022-10-31T08:43:00.199Z,16.10
2022-10-31T08:45:27.166Z,16.20
2022-10-31T08:47:57.788Z,16.20
2022-10-31T08:50:24.862Z,16.10
2022-10-31T08:53:05.314Z,16.10
2022-10-31T08:55:34.432Z,16.00
2022-10-31T08:58:01.662Z,16.10
2022-10-31T09:00:28.689Z,16.20
2022-10-31T09:02:56.329Z,16.30
2022-10-31T09:05:23.190Z,16.30
2022-10-31T09:07:50.078Z,16.30
2022-10-31T09:10:16.960Z,16.30
2022-10-31T09:12:43.831Z,16.30
2022-10-31T09:15:10.670Z,16.40
2022-10-31T09:17:38.275Z,16.60
2022-10-31T09:20:05.319Z,16.80
2022-10-31T09:22:32.147Z,17.10
2022-10-31T09:25:01.136Z,17.40
2022-10-31T09:27:28.210Z,17.70
2022-10-31T09:29:55.110Z,18.00
2022-10-31T09:32:22.130Z,18.20
2022-10-31T09:34:48.888Z,18.20
2022-10-31T09:37:15.658Z,18.10
2022-10-31T09:39:42.507Z,18.20
2022-10-31T09:42:25.059Z,18.40
2022-10-31T09:44:55.026Z,18.60
2022-10-31T09:47:37.191Z,18.60
2022-10-31T09:50:24.260Z,18.80
2022-10-31T09:53:05.348Z,19.10
2022-10-31T09:55:41.222Z,19.10
2022-10-31T10:01:51.044Z,19.10
2022-10-31T10:04:41.846Z,19.00
2022-10-31T10:07:22.669Z,18.80
2022-10-31T10:09:50.258Z,18.60
2022-10-31T10:12:35.303Z,18.50
2022-10-31T10:15:02.108Z,18.40
2022-10-31T10:18:01.871Z,18.40
2022-10-31T10:20:38.820Z,18.20
2022-10-31T10:23:09.190Z,18.10
2022-10-31T10:25:40.752Z,18.00
2022-10-31T10:28:22.786Z,18.00
2022-10-31T10:31:10.089Z,18.20
2022-10-31T10:33:55.708Z,18.30
2022-10-31T10:36:30.894Z,18.50
2022-10-31T10:39:03.449Z,18.70
2022-10-31T10:41:34.486Z,18.80
2022-10-31T10:44:01.618Z,18.70
2022-10-31T10:46:47.003Z,18.70
2022-10-31T10:49:17.116Z,18.60
2022-10-31T10:52:02.173Z,18.40
2022-10-31T10:54:36.307Z,18.40
2022-10-31T10:57:12.938Z,18.30
2022-10-31T10:59:40.019Z,18.30
2022-10-31T11:02:17.693Z,18.40
2022-10-31T11:04:46.286Z,18.40
2022-10-31T11:07:13.202Z,18.50
2022-10-31T11:09:39.959Z,18.40
2022-10-31T11:12:36.225Z,18.40
2022-10-31T11:15:17.800Z,18.30
2022-10-31T11:17:48.741Z,18.40
2022-10-31T11:20:18.142Z,18.60
2022-10-31T11:22:47.224Z,18.70
2022-10-31T11:25:20.332Z,18.70
2022-10-31T11:27:47.403Z,18.70
2022-10-31T11:30:20.794Z,18.60
2022-10-31T11:32:50.214Z,18.70
2022-10-31T11:38:46.639Z,18.70
2022-10-31T11:44:35.870Z,18.60
2022-10-31T11:47:04.982Z,18.80
2022-10-31T11:49:31.999Z,19.00
2022-10-31T11:52:00.532Z,19.20
2022-10-31T11:54:32.692Z,19.20
2022-10-31T11:56:59.572Z,19.10
2022-10-31T11:59:31.377Z,19.10
2022-10-31T12:02:02.339Z,19.10
2022-10-31T12:04:36.134Z,19.00
2022-10-31T12:07:02.913Z,18.90
2022-10-31T12:09:33.945Z,18.90
2022-10-31T12:12:00.725Z,18.80
2022-10-31T12:14:47.799Z,18.90
2022-10-31T12:17:25.880Z,18.80
2022-10-31T12:20:00.856Z,18.80
2022-10-31T12:22:30.672Z,18.90
2022-10-31T12:25:09.865Z,18.90
2022-10-31T12:27:55.471Z,18.80
2022-10-31T12:30:28.355Z,18.70
2022-10-31T12:33:11.939Z,18.60
2022-10-31T12:38:18.581Z,18.40
2022-10-31T12:40:45.351Z,18.40
2022-10-31T12:43:31.216Z,18.30
2022-10-31T12:45:59.152Z,18.30
2022-10-31T12:48:25.919Z,18.30
2022-10-31T12:50:55.801Z,18.30
2022-10-31T12:53:29.926Z,18.30
2022-10-31T12:56:03.885Z,18.30
2022-10-31T12:58:33.884Z,18.40
2022-10-31T13:01:19.244Z,18.30
2022-10-31T13:04:06.378Z,18.30
2022-10-31T13:06:44.727Z,18.40
2022-10-31T13:09:16.502Z,18.40
2022-10-31T13:11:48.164Z,18.40
2022-10-31T13:14:26.920Z,18.40
2022-10-31T13:16:54.979Z,18.40
2022-10-31T13:19:24.550Z,18.40
2022-10-31T13:21:58.624Z,18.30
2022-10-31T13:24:29.469Z,18.30
2022-10-31T13:26:58.792Z,18.30
2022-10-31T13:29:35.217Z,18.30
2022-10-31T13:32:05.594Z,18.20
2022-10-31T13:34:32.356Z,18.20
2022-10-31T13:37:19.425Z,18.10
2022-10-31T13:40:03.791Z,18.10
2022-10-31T13:42:46.543Z,18.00
2022-10-31T13:45:17.735Z,18.00
2022-10-31T13:47:55.293Z,18.00
2022-10-31T13:50:24.197Z,18.00
2022-10-31T13:52:51.055Z,18.00
2022-10-31T13:55:40.211Z,17.90
2022-10-31T13:58:21.183Z,17.90
2022-10-31T14:00:58.556Z,17.80
2022-10-31T14:03:49.361Z,17.80
2022-10-31T14:06:13.504Z,17.70
2022-10-31T14:08:49.562Z,17.70
2022-10-31T14:11:32.933Z,17.60
2022-10-31T14:14:03.152Z,17.60
2022-10-31T14:16:31.746Z,17.60
2022-10-31T14:19:03.378Z,17.50
2022-10-31T14:21:32.047Z,17.50
2022-10-31T14:24:03.852Z,17.50
2022-10-31T14:26:32.704Z,17.40
2022-10-31T14:29:05.582Z,17.40
2022-10-31T14:31:52.800Z,17.30
2022-10-31T14:34:39.602Z,17.30
2022-10-31T14:37:09.453Z,17.20
2022-10-31T14:39:45.991Z,17.20
2022-10-31T14:42:28.820Z,17.20
2022-10-31T14:45:05.780Z,17.10
2022-10-31T14:47:51.264Z,17.10
2022-10-31T14:50:27.738Z,17.00
2022-10-31T14:52:56.158Z,17.00
2022-10-31T14:55:23.980Z,16.90
2022-10-31T14:57:53.265Z,16.90
2022-10-31T15:00:21.447Z,16.80
2022-10-31T15:02:51.711Z,16.70
2022-10-31T15:05:19.370Z,16.70
2022-10-31T15:07:53.653Z,16.60
2022-10-31T15:10:26.702Z,16.60
2022-10-31T15:12:53.534Z,16.50
2022-10-31T15:15:27.717Z,16.50
2022-10-31T15:18:00.296Z,16.50
2022-10-31T15:20:28.814Z,16.50
2022-10-31T15:22:59.500Z,16.40
2022-10-31T15:25:28.368Z,16.40
2022-10-31T15:27:55.188Z,16.30
2022-10-31T15:30:26.636Z,16.30
2022-10-31T15:32:58.793Z,16.20
2022-10-31T15:35:32.009Z,16.20
2022-10-31T15:37:59.849Z,16.20
2022-10-31T15:40:27.708Z,16.20
2022-10-31T15:43:00.296Z,16.20
2022-10-31T15:45:28.545Z,16.10
2022-10-31T15:47:57.694Z,16.10
2022-10-31T15:50:29.670Z,16.00
2022-10-31T15:52:56.737Z,16.00
2022-10-31T15:55:25.021Z,16.00
2022-10-31T15:58:11.203Z,16.00
2022-10-31T16:00:39.505Z,16.00
2022-10-31T16:03:09.435Z,16.00
2022-10-31T16:05:38.277Z,16.00
2022-10-31T16:08:05.690Z,16.00
2022-10-31T16:10:34.093Z,16.00
2022-10-31T16:13:01.904Z,15.90
2022-10-31T16:15:30.836Z,15.90
2022-10-31T16:18:01.472Z,15.90
2022-10-31T16:20:30.085Z,15.90
2022-10-31T16:22:58.875Z,15.90
2022-10-31T16:25:30.706Z,15.80
2022-10-31T16:28:01.381Z,15.80
2022-10-31T16:30:47.909Z,15.80
2022-10-31T16:33:26.819Z,15.80
2022-10-31T16:36:04.212Z,15.80
2022-10-31T16:38:36.813Z,15.80
2022-10-31T16:41:03.643Z,15.80
2022-10-31T16:43:30.638Z,15.70
2022-10-31T16:45:57.493Z,15.80
2022-10-31T16:48:24.372Z,15.80
2022-10-31T16:50:51.624Z,15.80
2022-10-31T16:53:19.082Z,15.80
2022-10-31T16:55:56.780Z,15.70
2022-10-31T16:58:28.511Z,15.70
2022-10-31T17:00:55.370Z,15.70
2022-10-31T17:03:22.592Z,15.70
2022-10-31T17:05:49.603Z,15.70
2022-10-31T17:08:16.572Z,15.70
2022-10-31T17:10:44.485Z,15.60
2022-10-31T17:13:18.200Z,15.60
2022-10-31T17:15:47.222Z,15.60
2022-10-31T17:18:15.120Z,15.60
2022-10-31T17:20:42.286Z,15.70
2022-10-31T17:23:10.827Z,15.70
2022-10-31T17:25:38.707Z,15.70
2022-10-31T17:28:06.066Z,15.70
2022-10-31T17:30:34.405Z,15.80
2022-10-31T17:33:01.533Z,15.80
2022-10-31T17:35:28.700Z,15.80
2022-10-31T17:37:56.086Z,15.80
2022-10-31T17:40:23.504Z,15.80
2022-10-31T17:42:51.946Z,15.80
2022-10-31T17:45:19.691Z,15.80
2022-10-31T17:47:47.723Z,15.80
2022-10-31T17:50:15.887Z,15.80
2022-10-31T17:52:42.900Z,15.90
2022-10-31T17:55:10.363Z,15.70
2022-10-31T17:57:37.833Z,15.90
2022-10-31T18:00:05.827Z,15.90
2022-10-31T18:02:33.004Z,15.90
2022-10-31T18:05:02.767Z,15.90
2022-10-31T18:07:30.074Z,15.90
2022-10-31T18:09:57.124Z,15.90
2022-10-31T18:12:24.311Z,16.00
2022-10-31T18:14:52.222Z,16.00
2022-10-31T18:17:19.506Z,16.00
2022-10-31T18:19:46.813Z,16.00
2022-10-31T18:22:15.132Z,16.00
2022-10-31T18:24:42.241Z,16.00
2022-10-31T18:27:09.263Z,16.00
2022-10-31T18:29:36.382Z,16.00
2022-10-31T18:32:09.069Z,16.00
2022-10-31T18:34:36.620Z,16.00
2022-10-31T18:37:03.832Z,15.90
2022-10-31T18:39:30.840Z,15.90
2022-10-31T18:41:57.990Z,15.80
2022-10-31T18:44:24.970Z,15.80
2022-10-31T18:46:52.114Z,15.80
2022-10-31T18:49:23.103Z,15.80
2022-10-31T18:51:50.582Z,15.80
2022-10-31T18:54:17.888Z,15.70
2022-10-31T18:56:45.431Z,15.70
2022-10-31T18:59:12.576Z,15.70
2022-10-31T19:01:40.323Z,15.60
2022-10-31T19:04:07.796Z,15.50
2022-10-31T19:06:34.601Z,15.50
2022-10-31T19:09:03.081Z,15.40
2022-10-31T19:11:32.672Z,15.40
2022-10-31T19:13:59.851Z,15.40
2022-10-31T19:16:27.906Z,15.40
2022-10-31T19:18:56.095Z,15.40
2022-10-31T19:21:41.817Z,15.40
2022-10-31T19:24:12.611Z,15.40
2022-10-31T19:26:39.517Z,15.40
2022-10-31T19:29:06.429Z,15.40
2022-10-31T19:31:33.705Z,15.40
2022-10-31T19:34:00.538Z,15.40
2022-10-31T19:36:27.721Z,15.40
2022-10-31T19:38:54.598Z,15.50
2022-10-31T19:41:26.232Z,15.50
2022-10-31T19:43:53.682Z,15.60
2022-10-31T19:46:33.886Z,15.50
2022-10-31T19:49:09.759Z,15.50
2022-10-31T19:51:57.818Z,15.60
2022-10-31T19:54:24.679Z,15.60
2022-10-31T19:56:51.834Z,15.60
2022-10-31T19:59:18.810Z,15.60
2022-10-31T20:01:45.753Z,15.60
2022-10-31T20:04:12.688Z,15.60
2022-10-31T20:06:40.661Z,15.60
2022-10-31T20:09:09.752Z,15.60
2022-10-31T20:11:49.227Z,15.50
2022-10-31T20:14:17.668Z,15.50
2022-10-31T20:16:45.815Z,15.40
2022-10-31T20:19:12.629Z,15.40
2022-10-31T20:21:41.276Z,15.30
2022-10-31T20:24:09.170Z,15.30
2022-10-31T20:26:39.280Z,15.30
2022-10-31T20:29:06.435Z,15.30
2022-10-31T20:31:41.155Z,15.40
2022-10-31T20:34:08.651Z,15.50
2022-10-31T20:36:47.517Z,15.60
2022-10-31T20:39:37.545Z,15.60
2022-10-31T20:42:07.446Z,15.70
2022-10-31T20:44:44.110Z,15.60
2022-10-31T20:47:23.476Z,15.70
2022-10-31T20:49:51.892Z,15.70
2022-10-31T20:52:18.671Z,15.70
2022-10-31T20:54:45.789Z,15.70
2022-10-31T20:57:12.666Z,15.70
2022-10-31T20:59:39.730Z,15.70
2022-10-31T21:02:06.875Z,15.70
2022-10-31T21:04:34.090Z,15.70
2022-10-31T21:07:01.428Z,15.70
2022-10-31T21:09:28.301Z,15.70
2022-10-31T21:11:55.176Z,15.60
2022-10-31T21:14:25.387Z,15.60
2022-10-31T21:16:52.603Z,15.60
2022-10-31T21:19:19.688Z,15.60
2022-10-31T21:21:46.627Z,15.50
2022-10-31T21:24:15.374Z,15.50
2022-10-31T21:26:43.813Z,15.50
2022-10-31T21:29:11.583Z,15.50
2022-10-31T21:31:38.907Z,15.50
2022-10-31T21:34:06.210Z,15.40
2022-10-31T21:36:33.775Z,15.40
2022-10-31T21:39:03.976Z,15.40
2022-10-31T21:41:30.783Z,15.30
2022-10-31T21:43:57.716Z,15.30
2022-10-31T21:46:25.631Z,15.30
2022-10-31T21:51:44.493Z,15.20
2022-10-31T21:54:43.130Z,15.10
2022-10-31T21:57:13.728Z,15.20
2022-10-31T21:59:45.799Z,15.10
2022-10-31T22:02:12.734Z,15.20
2022-10-31T22:04:41.289Z,15.10
2022-10-31T22:07:08.096Z,15.20
2022-10-31T22:09:53.759Z,15.20
2022-10-31T22:12:21.883Z,15.20
2022-10-31T22:14:48.817Z,15.20
2022-10-31T22:17:15.758Z,15.20
2022-10-31T22:19:42.568Z,15.10
2022-10-31T22:22:10.986Z,15.10
2022-10-31T22:24:37.723Z,15.00
2022-10-31T22:27:04.635Z,15.00
2022-10-31T22:29:31.599Z,15.00
2022-10-31T22:31:59.737Z,15.00
2022-10-31T22:34:28.545Z,15.00
2022-10-31T22:36:56.534Z,14.90
2022-10-31T22:39:23.388Z,14.90
2022-10-31T22:41:50.230Z,14.90
2022-10-31T22:44:17.105Z,14.90
2022-10-31T22:46:43.876Z,14.90
2022-10-31T22:49:12.243Z,14.90
2022-10-31T22:51:39.742Z,14.90
2022-10-31T22:54:12.904Z,14.90
2022-10-31T22:56:39.841Z,15.00
2022-10-31T22:59:06.631Z,15.00
2022-10-31T23:01:34.249Z,15.00
2022-10-31T23:04:01.772Z,15.00
2022-10-31T23:06:32.691Z,15.00
2022-10-31T23:09:00.473Z,14.90
2022-10-31T23:11:27.426Z,15.00
2022-10-31T23:14:16.000Z,14.90
2022-10-31T23:16:44.840Z,14.90
2022-10-31T23:19:13.207Z,14.90
2022-10-31T23:21:54.733Z,14.80
2022-10-31T23:24:23.414Z,14.80
2022-10-31T23:27:09.309Z,14.80
2022-10-31T23:29:44.035Z,14.80
2022-10-31T23:32:12.668Z,14.70
2022-10-31T23:34:39.466Z,14.70
2022-10-31T23:39:33.059Z,14.90
2022-10-31T23:41:59.883Z,14.70
2022-10-31T23:44:26.629Z,14.70
2022-10-31T23:46:53.495Z,14.70
2022-10-31T23:49:20.421Z,14.70
2022-10-31T23:51:47.201Z,14.70
2022-10-31T23:54:14.108Z,14.60
2022-10-31T23:56:40.971Z,14.70
2022-10-31T23:59:08.136Z,14.60
